sensor_id;sensor_type;location;lat;lon;timestamp;P1;durP1;ratioP1;P2;durP2;ratioP2
11211;SDS011;5663;50.864;12.096;2024-01-30T00:01:57;8.87;;;5.40;;
11211;SDS011;5663;50.864;12.096;2024-01-30T00:04:40;7.50;;;4.93;;
11211;SDS011;5663;50.864;12.096;2024-01-30T00:07:10;8.90;;;5.37;;
11211;SDS011;5663;50.864;12.096;2024-01-30T00:09:38;8.83;;;5.30;;
11211;SDS011;5663;50.864;12.096;2024-01-30T00:12:22;7.80;;;5.10;;
11211;SDS011;5663;50.864;12.096;2024-01-30T00:14:53;8.53;;;5.37;;
11211;SDS011;5663;50.864;12.096;2024-01-30T00:17:24;9.40;;;5.23;;
11211;SDS011;5663;50.864;12.096;2024-01-30T00:20:15;8.47;;;4.90;;
11211;SDS011;5663;50.864;12.096;2024-01-30T00:22:43;8.23;;;5.27;;
11211;SDS011;5663;50.864;12.096;2024-01-30T00:25:11;7.87;;;5.30;;
11211;SDS011;5663;50.864;12.096;2024-01-30T00:27:40;6.67;;;4.90;;
11211;SDS011;5663;50.864;12.096;2024-01-30T00:30:11;7.60;;;5.00;;
11211;SDS011;5663;50.864;12.096;2024-01-30T00:32:39;7.20;;;4.90;;
11211;SDS011;5663;50.864;12.096;2024-01-30T00:35:09;8.50;;;4.93;;
11211;SDS011;5663;50.864;12.096;2024-01-30T00:37:37;7.23;;;5.20;;
11211;SDS011;5663;50.864;12.096;2024-01-30T00:40:07;8.70;;;4.90;;
11211;SDS011;5663;50.864;12.096;2024-01-30T00:42:52;9.50;;;5.03;;
11211;SDS011;5663;50.864;12.096;2024-01-30T00:45:21;8.37;;;5.37;;
11211;SDS011;5663;50.864;12.096;2024-01-30T00:48:08;8.30;;;5.10;;
11211;SDS011;5663;50.864;12.096;2024-01-30T00:50:37;7.53;;;4.87;;
11211;SDS011;5663;50.864;12.096;2024-01-30T00:53:20;7.47;;;5.30;;
11211;SDS011;5663;50.864;12.096;2024-01-30T00:56:04;10.77;;;5.40;;
11211;SDS011;5663;50.864;12.096;2024-01-30T00:58:37;9.67;;;5.33;;
11211;SDS011;5663;50.864;12.096;2024-01-30T01:01:18;8.47;;;5.40;;
11211;SDS011;5663;50.864;12.096;2024-01-30T01:04:03;6.87;;;4.93;;
11211;SDS011;5663;50.864;12.096;2024-01-30T01:06:58;8.70;;;5.33;;
11211;SDS011;5663;50.864;12.096;2024-01-30T01:09:45;9.23;;;5.53;;
11211;SDS011;5663;50.864;12.096;2024-01-30T01:12:27;9.57;;;5.67;;
11211;SDS011;5663;50.864;12.096;2024-01-30T01:14:56;8.20;;;4.90;;
11211;SDS011;5663;50.864;12.096;2024-01-30T01:17:25;7.90;;;4.97;;
11211;SDS011;5663;50.864;12.096;2024-01-30T01:19:55;6.97;;;5.00;;
11211;SDS011;5663;50.864;12.096;2024-01-30T01:22:27;7.43;;;4.83;;
11211;SDS011;5663;50.864;12.096;2024-01-30T01:24:54;7.67;;;4.87;;
11211;SDS011;5663;50.864;12.096;2024-01-30T01:27:38;8.10;;;5.07;;
11211;SDS011;5663;50.864;12.096;2024-01-30T01:30:08;8.87;;;5.37;;
11211;SDS011;5663;50.864;12.096;2024-01-30T01:32:50;8.37;;;5.70;;
11211;SDS011;5663;50.864;12.096;2024-01-30T01:35:23;8.60;;;5.00;;
11211;SDS011;5663;50.864;12.096;2024-01-30T01:37:51;9.27;;;5.40;;
11211;SDS011;5663;50.864;12.096;2024-01-30T01:40:44;10.30;;;5.27;;
11211;SDS011;5663;50.864;12.096;2024-01-30T01:43:30;7.93;;;5.20;;
11211;SDS011;5663;50.864;12.096;2024-01-30T01:46:16;10.80;;;5.40;;
11211;SDS011;5663;50.864;12.096;2024-01-30T01:49:01;8.23;;;5.73;;
11211;SDS011;5663;50.864;12.096;2024-01-30T01:51:31;8.50;;;5.60;;
11211;SDS011;5663;50.864;12.096;2024-01-30T01:54:03;8.47;;;5.20;;
11211;SDS011;5663;50.864;12.096;2024-01-30T01:56:34;10.03;;;5.63;;
11211;SDS011;5663;50.864;12.096;2024-01-30T01:59:04;7.93;;;5.33;;
11211;SDS011;5663;50.864;12.096;2024-01-30T02:01:34;9.70;;;6.13;;
11211;SDS011;5663;50.864;12.096;2024-01-30T02:04:06;7.97;;;5.37;;
11211;SDS011;5663;50.864;12.096;2024-01-30T02:06:34;9.33;;;5.70;;
11211;SDS011;5663;50.864;12.096;2024-01-30T02:09:03;8.10;;;5.77;;
11211;SDS011;5663;50.864;12.096;2024-01-30T02:11:31;9.73;;;6.17;;
11211;SDS011;5663;50.864;12.096;2024-01-30T02:14:02;10.10;;;5.90;;
11211;SDS011;5663;50.864;12.096;2024-01-30T02:16:32;8.83;;;5.50;;
11211;SDS011;5663;50.864;12.096;2024-01-30T02:19:20;9.57;;;5.73;;
11211;SDS011;5663;50.864;12.096;2024-01-30T02:22:06;8.30;;;5.53;;
11211;SDS011;5663;50.864;12.096;2024-01-30T02:24:35;9.43;;;5.90;;
11211;SDS011;5663;50.864;12.096;2024-01-30T02:27:03;8.60;;;5.80;;
11211;SDS011;5663;50.864;12.096;2024-01-30T02:29:43;9.70;;;5.07;;
11211;SDS011;5663;50.864;12.096;2024-01-30T02:32:14;9.13;;;6.03;;
11211;SDS011;5663;50.864;12.096;2024-01-30T02:34:51;11.77;;;6.03;;
11211;SDS011;5663;50.864;12.096;2024-01-30T02:37:28;11.83;;;6.67;;
11211;SDS011;5663;50.864;12.096;2024-01-30T02:40:12;8.57;;;5.50;;
11211;SDS011;5663;50.864;12.096;2024-01-30T02:42:55;8.57;;;5.67;;
11211;SDS011;5663;50.864;12.096;2024-01-30T02:45:36;9.57;;;6.03;;
11211;SDS011;5663;50.864;12.096;2024-01-30T02:48:07;9.13;;;5.80;;
11211;SDS011;5663;50.864;12.096;2024-01-30T02:50:35;10.47;;;5.67;;
11211;SDS011;5663;50.864;12.096;2024-01-30T02:53:21;9.67;;;5.70;;
11211;SDS011;5663;50.864;12.096;2024-01-30T02:56:10;9.03;;;5.97;;
11211;SDS011;5663;50.864;12.096;2024-01-30T02:58:58;8.63;;;5.83;;
11211;SDS011;5663;50.864;12.096;2024-01-30T03:01:26;10.77;;;6.40;;
11211;SDS011;5663;50.864;12.096;2024-01-30T03:04:14;10.60;;;6.43;;
11211;SDS011;5663;50.864;12.096;2024-01-30T03:06:44;7.77;;;5.43;;
11211;SDS011;5663;50.864;12.096;2024-01-30T03:09:30;9.90;;;5.70;;
11211;SDS011;5663;50.864;12.096;2024-01-30T03:12:09;8.13;;;5.03;;
11211;SDS011;5663;50.864;12.096;2024-01-30T03:14:48;7.43;;;5.23;;
11211;SDS011;5663;50.864;12.096;2024-01-30T03:17:18;8.87;;;5.77;;
11211;SDS011;5663;50.864;12.096;2024-01-30T03:19:47;7.87;;;5.40;;
11211;SDS011;5663;50.864;12.096;2024-01-30T03:22:16;9.50;;;5.43;;
11211;SDS011;5663;50.864;12.096;2024-01-30T03:24:45;10.03;;;5.97;;
11211;SDS011;5663;50.864;12.096;2024-01-30T03:27:13;6.53;;;4.80;;
11211;SDS011;5663;50.864;12.096;2024-01-30T03:29:50;8.87;;;5.80;;
11211;SDS011;5663;50.864;12.096;2024-01-30T03:32:20;8.73;;;5.60;;
11211;SDS011;5663;50.864;12.096;2024-01-30T03:34:48;8.90;;;5.60;;
11211;SDS011;5663;50.864;12.096;2024-01-30T03:37:28;7.33;;;5.17;;
11211;SDS011;5663;50.864;12.096;2024-01-30T03:40:02;9.13;;;5.00;;
11211;SDS011;5663;50.864;12.096;2024-01-30T03:42:48;12.57;;;5.17;;
11211;SDS011;5663;50.864;12.096;2024-01-30T03:45:18;7.23;;;5.10;;
11211;SDS011;5663;50.864;12.096;2024-01-30T03:48:02;9.43;;;5.43;;
11211;SDS011;5663;50.864;12.096;2024-01-30T03:50:30;8.70;;;4.77;;
11211;SDS011;5663;50.864;12.096;2024-01-30T03:52:59;8.53;;;5.13;;
11211;SDS011;5663;50.864;12.096;2024-01-30T03:55:36;7.93;;;4.90;;
11211;SDS011;5663;50.864;12.096;2024-01-30T03:58:05;8.23;;;5.50;;
11211;SDS011;5663;50.864;12.096;2024-01-30T04:00:51;10.23;;;5.40;;
11211;SDS011;5663;50.864;12.096;2024-01-30T04:03:33;8.37;;;5.47;;
11211;SDS011;5663;50.864;12.096;2024-01-30T04:06:19;10.83;;;5.33;;
11211;SDS011;5663;50.864;12.096;2024-01-30T04:09:04;6.90;;;5.10;;
11211;SDS011;5663;50.864;12.096;2024-01-30T04:11:36;7.67;;;5.17;;
11211;SDS011;5663;50.864;12.096;2024-01-30T04:14:06;7.07;;;5.07;;
11211;SDS011;5663;50.864;12.096;2024-01-30T04:16:52;8.33;;;4.70;;
11211;SDS011;5663;50.864;12.096;2024-01-30T04:19:39;10.27;;;5.50;;
11211;SDS011;5663;50.864;12.096;2024-01-30T04:22:09;8.83;;;5.50;;
11211;SDS011;5663;50.864;12.096;2024-01-30T04:24:55;7.50;;;5.17;;
11211;SDS011;5663;50.864;12.096;2024-01-30T04:27:49;9.47;;;5.17;;
11211;SDS011;5663;50.864;12.096;2024-01-30T04:30:19;7.43;;;4.97;;
11211;SDS011;5663;50.864;12.096;2024-01-30T04:32:49;9.03;;;5.03;;
11211;SDS011;5663;50.864;12.096;2024-01-30T04:35:35;9.87;;;5.20;;
11211;SDS011;5663;50.864;12.096;2024-01-30T04:38:06;11.53;;;5.70;;
11211;SDS011;5663;50.864;12.096;2024-01-30T04:40:34;6.93;;;4.60;;
11211;SDS011;5663;50.864;12.096;2024-01-30T04:43:08;8.10;;;5.93;;
11211;SDS011;5663;50.864;12.096;2024-01-30T04:45:51;10.00;;;5.77;;
11211;SDS011;5663;50.864;12.096;2024-01-30T04:48:24;9.40;;;5.13;;
11211;SDS011;5663;50.864;12.096;2024-01-30T04:50:54;8.03;;;5.23;;
11211;SDS011;5663;50.864;12.096;2024-01-30T04:53:21;9.47;;;5.40;;
11211;SDS011;5663;50.864;12.096;2024-01-30T04:55:51;9.67;;;5.70;;
11211;SDS011;5663;50.864;12.096;2024-01-30T04:58:20;8.63;;;5.00;;
11211;SDS011;5663;50.864;12.096;2024-01-30T05:01:14;8.90;;;5.70;;
11211;SDS011;5663;50.864;12.096;2024-01-30T05:03:52;8.53;;;5.43;;
11211;SDS011;5663;50.864;12.096;2024-01-30T05:06:26;8.43;;;5.07;;
11211;SDS011;5663;50.864;12.096;2024-01-30T05:08:55;7.43;;;5.43;;
11211;SDS011;5663;50.864;12.096;2024-01-30T05:11:24;9.47;;;4.80;;
11211;SDS011;5663;50.864;12.096;2024-01-30T05:14:09;9.63;;;5.60;;
11211;SDS011;5663;50.864;12.096;2024-01-30T05:16:41;7.73;;;5.30;;
11211;SDS011;5663;50.864;12.096;2024-01-30T05:19:25;7.43;;;5.03;;
11211;SDS011;5663;50.864;12.096;2024-01-30T05:22:10;8.30;;;5.40;;
11211;SDS011;5663;50.864;12.096;2024-01-30T05:24:54;11.27;;;5.33;;
11211;SDS011;5663;50.864;12.096;2024-01-30T05:27:25;7.83;;;5.30;;
11211;SDS011;5663;50.864;12.096;2024-01-30T05:30:13;7.10;;;5.20;;
11211;SDS011;5663;50.864;12.096;2024-01-30T05:32:47;11.13;;;6.20;;
11211;SDS011;5663;50.864;12.096;2024-01-30T05:35:18;9.27;;;5.10;;
11211;SDS011;5663;50.864;12.096;2024-01-30T05:37:50;10.53;;;5.40;;
11211;SDS011;5663;50.864;12.096;2024-01-30T05:40:38;8.93;;;5.23;;
11211;SDS011;5663;50.864;12.096;2024-01-30T05:43:24;7.73;;;5.37;;
11211;SDS011;5663;50.864;12.096;2024-01-30T05:45:53;11.07;;;5.23;;
11211;SDS011;5663;50.864;12.096;2024-01-30T05:48:36;9.07;;;5.30;;
11211;SDS011;5663;50.864;12.096;2024-01-30T05:51:25;8.90;;;5.23;;
11211;SDS011;5663;50.864;12.096;2024-01-30T05:54:14;7.90;;;4.97;;
11211;SDS011;5663;50.864;12.096;2024-01-30T05:56:45;8.33;;;5.53;;
11211;SDS011;5663;50.864;12.096;2024-01-30T05:59:14;9.27;;;5.50;;
11211;SDS011;5663;50.864;12.096;2024-01-30T06:01:47;8.23;;;5.20;;
11211;SDS011;5663;50.864;12.096;2024-01-30T06:04:16;8.83;;;5.33;;
11211;SDS011;5663;50.864;12.096;2024-01-30T06:06:43;8.40;;;4.90;;
11211;SDS011;5663;50.864;12.096;2024-01-30T06:09:25;7.57;;;5.20;;
11211;SDS011;5663;50.864;12.096;2024-01-30T06:12:14;10.63;;;5.87;;
11211;SDS011;5663;50.864;12.096;2024-01-30T06:14:56;8.57;;;5.80;;
11211;SDS011;5663;50.864;12.096;2024-01-30T06:17:26;11.33;;;6.33;;
11211;SDS011;5663;50.864;12.096;2024-01-30T06:19:54;8.03;;;5.50;;
11211;SDS011;5663;50.864;12.096;2024-01-30T06:22:22;10.07;;;6.40;;
11211;SDS011;5663;50.864;12.096;2024-01-30T06:25:08;10.83;;;6.40;;
11211;SDS011;5663;50.864;12.096;2024-01-30T06:27:53;9.63;;;6.33;;
11211;SDS011;5663;50.864;12.096;2024-01-30T06:30:32;11.13;;;6.07;;
11211;SDS011;5663;50.864;12.096;2024-01-30T06:33:03;10.93;;;6.50;;
11211;SDS011;5663;50.864;12.096;2024-01-30T06:35:32;11.90;;;6.00;;
11211;SDS011;5663;50.864;12.096;2024-01-30T06:38:04;11.53;;;6.13;;
11211;SDS011;5663;50.864;12.096;2024-01-30T06:40:31;8.70;;;6.10;;
11211;SDS011;5663;50.864;12.096;2024-01-30T06:43:01;11.37;;;6.33;;
11211;SDS011;5663;50.864;12.096;2024-01-30T06:45:48;10.07;;;6.47;;
11211;SDS011;5663;50.864;12.096;2024-01-30T06:48:32;11.57;;;6.70;;
11211;SDS011;5663;50.864;12.096;2024-01-30T06:51:15;9.80;;;6.00;;
11211;SDS011;5663;50.864;12.096;2024-01-30T06:53:58;11.10;;;6.10;;
11211;SDS011;5663;50.864;12.096;2024-01-30T06:56:30;11.37;;;6.23;;
11211;SDS011;5663;50.864;12.096;2024-01-30T06:59:00;9.50;;;6.50;;
11211;SDS011;5663;50.864;12.096;2024-01-30T07:01:49;11.73;;;6.07;;
11211;SDS011;5663;50.864;12.096;2024-01-30T07:04:32;12.23;;;6.30;;
11211;SDS011;5663;50.864;12.096;2024-01-30T07:06:59;8.83;;;6.17;;
11211;SDS011;5663;50.864;12.096;2024-01-30T07:09:27;12.50;;;6.37;;
11211;SDS011;5663;50.864;12.096;2024-01-30T07:11:55;13.20;;;6.63;;
11211;SDS011;5663;50.864;12.096;2024-01-30T07:14:24;11.23;;;5.77;;
11211;SDS011;5663;50.864;12.096;2024-01-30T07:17:12;8.23;;;5.07;;
11211;SDS011;5663;50.864;12.096;2024-01-30T07:19:44;13.90;;;6.97;;
11211;SDS011;5663;50.864;12.096;2024-01-30T07:22:11;10.80;;;6.13;;
11211;SDS011;5663;50.864;12.096;2024-01-30T07:24:42;11.67;;;7.03;;
11211;SDS011;5663;50.864;12.096;2024-01-30T07:27:11;9.90;;;6.10;;
11211;SDS011;5663;50.864;12.096;2024-01-30T07:29:39;11.23;;;7.23;;
11211;SDS011;5663;50.864;12.096;2024-01-30T07:32:09;13.13;;;6.33;;
11211;SDS011;5663;50.864;12.096;2024-01-30T07:34:37;12.27;;;6.73;;
11211;SDS011;5663;50.864;12.096;2024-01-30T07:37:08;7.93;;;5.60;;
11211;SDS011;5663;50.864;12.096;2024-01-30T07:39:38;10.60;;;6.40;;
11211;SDS011;5663;50.864;12.096;2024-01-30T07:42:06;11.00;;;6.17;;
11211;SDS011;5663;50.864;12.096;2024-01-30T07:44:37;8.00;;;6.20;;
11211;SDS011;5663;50.864;12.096;2024-01-30T07:47:06;10.57;;;6.47;;
11211;SDS011;5663;50.864;12.096;2024-01-30T07:49:39;12.47;;;6.47;;
11211;SDS011;5663;50.864;12.096;2024-01-30T07:52:10;10.77;;;6.50;;
11211;SDS011;5663;50.864;12.096;2024-01-30T07:54:40;13.43;;;6.33;;
11211;SDS011;5663;50.864;12.096;2024-01-30T07:57:32;12.80;;;6.27;;
11211;SDS011;5663;50.864;12.096;2024-01-30T08:00:00;9.63;;;5.97;;
11211;SDS011;5663;50.864;12.096;2024-01-30T08:02:31;9.63;;;6.43;;
11211;SDS011;5663;50.864;12.096;2024-01-30T08:05:00;10.10;;;6.30;;
11211;SDS011;5663;50.864;12.096;2024-01-30T08:07:35;10.37;;;5.97;;
11211;SDS011;5663;50.864;12.096;2024-01-30T08:10:03;9.83;;;6.17;;
11211;SDS011;5663;50.864;12.096;2024-01-30T08:12:30;14.40;;;6.60;;
11211;SDS011;5663;50.864;12.096;2024-01-30T08:15:00;11.23;;;6.33;;
11211;SDS011;5663;50.864;12.096;2024-01-30T08:17:32;14.37;;;6.43;;
11211;SDS011;5663;50.864;12.096;2024-01-30T08:20:04;11.10;;;6.20;;
11211;SDS011;5663;50.864;12.096;2024-01-30T08:22:37;9.90;;;6.13;;
11211;SDS011;5663;50.864;12.096;2024-01-30T08:25:05;11.57;;;6.00;;
11211;SDS011;5663;50.864;12.096;2024-01-30T08:27:36;14.73;;;6.57;;
11211;SDS011;5663;50.864;12.096;2024-01-30T08:30:08;10.90;;;6.53;;
11211;SDS011;5663;50.864;12.096;2024-01-30T08:32:38;8.67;;;5.90;;
11211;SDS011;5663;50.864;12.096;2024-01-30T08:35:09;11.80;;;6.23;;
11211;SDS011;5663;50.864;12.096;2024-01-30T08:37:42;10.00;;;6.57;;
11211;SDS011;5663;50.864;12.096;2024-01-30T08:40:09;9.20;;;6.47;;
11211;SDS011;5663;50.864;12.096;2024-01-30T08:42:38;11.07;;;6.63;;
11211;SDS011;5663;50.864;12.096;2024-01-30T08:45:06;8.50;;;6.60;;
11211;SDS011;5663;50.864;12.096;2024-01-30T08:47:48;11.73;;;7.00;;
11211;SDS011;5663;50.864;12.096;2024-01-30T08:50:16;10.40;;;7.07;;
11211;SDS011;5663;50.864;12.096;2024-01-30T08:53:11;10.83;;;6.90;;
11211;SDS011;5663;50.864;12.096;2024-01-30T08:55:58;11.33;;;7.03;;
11211;SDS011;5663;50.864;12.096;2024-01-30T08:58:26;13.40;;;7.90;;
11211;SDS011;5663;50.864;12.096;2024-01-30T09:00:54;10.60;;;6.57;;
11211;SDS011;5663;50.864;12.096;2024-01-30T09:03:24;14.73;;;6.80;;
11211;SDS011;5663;50.864;12.096;2024-01-30T09:06:00;13.20;;;7.07;;
11211;SDS011;5663;50.864;12.096;2024-01-30T09:08:36;10.27;;;6.93;;
11211;SDS011;5663;50.864;12.096;2024-01-30T09:11:08;15.33;;;7.43;;
11211;SDS011;5663;50.864;12.096;2024-01-30T09:13:38;12.63;;;7.60;;
11211;SDS011;5663;50.864;12.096;2024-01-30T09:16:07;10.83;;;7.00;;
11211;SDS011;5663;50.864;12.096;2024-01-30T09:18:37;13.47;;;7.50;;
11211;SDS011;5663;50.864;12.096;2024-01-30T09:21:07;10.70;;;7.10;;
11211;SDS011;5663;50.864;12.096;2024-01-30T09:23:36;11.93;;;7.80;;
11211;SDS011;5663;50.864;12.096;2024-01-30T09:26:10;10.80;;;7.50;;
11211;SDS011;5663;50.864;12.096;2024-01-30T09:28:39;13.83;;;7.73;;
11211;SDS011;5663;50.864;12.096;2024-01-30T09:31:09;11.43;;;7.13;;
11211;SDS011;5663;50.864;12.096;2024-01-30T09:33:37;12.70;;;7.40;;
11211;SDS011;5663;50.864;12.096;2024-01-30T09:36:12;10.13;;;7.27;;
11211;SDS011;5663;50.864;12.096;2024-01-30T09:38:58;13.27;;;7.53;;
11211;SDS011;5663;50.864;12.096;2024-01-30T09:41:27;11.80;;;6.90;;
11211;SDS011;5663;50.864;12.096;2024-01-30T09:43:57;13.47;;;7.57;;
11211;SDS011;5663;50.864;12.096;2024-01-30T09:46:26;12.57;;;7.57;;
11211;SDS011;5663;50.864;12.096;2024-01-30T09:48:54;14.47;;;7.73;;
11211;SDS011;5663;50.864;12.096;2024-01-30T09:51:23;13.87;;;7.57;;
11211;SDS011;5663;50.864;12.096;2024-01-30T09:53:51;14.23;;;8.20;;
11211;SDS011;5663;50.864;12.096;2024-01-30T09:56:22;11.20;;;7.53;;
11211;SDS011;5663;50.864;12.096;2024-01-30T09:58:52;9.80;;;7.23;;
11211;SDS011;5663;50.864;12.096;2024-01-30T10:01:39;12.73;;;8.27;;
11211;SDS011;5663;50.864;12.096;2024-01-30T10:04:13;12.60;;;7.50;;
11211;SDS011;5663;50.864;12.096;2024-01-30T10:06:41;11.87;;;7.80;;
11211;SDS011;5663;50.864;12.096;2024-01-30T10:09:09;14.90;;;7.93;;
11211;SDS011;5663;50.864;12.096;2024-01-30T10:11:38;10.57;;;8.03;;
11211;SDS011;5663;50.864;12.096;2024-01-30T10:14:06;10.43;;;7.07;;
11211;SDS011;5663;50.864;12.096;2024-01-30T10:16:37;11.20;;;7.57;;
11211;SDS011;5663;50.864;12.096;2024-01-30T10:19:05;16.07;;;7.57;;
11211;SDS011;5663;50.864;12.096;2024-01-30T10:21:34;10.80;;;7.13;;
11211;SDS011;5663;50.864;12.096;2024-01-30T10:24:14;10.47;;;7.63;;
11211;SDS011;5663;50.864;12.096;2024-01-30T10:26:59;11.17;;;7.53;;
11211;SDS011;5663;50.864;12.096;2024-01-30T10:29:27;11.13;;;7.27;;
11211;SDS011;5663;50.864;12.096;2024-01-30T10:31:59;11.63;;;7.73;;
11211;SDS011;5663;50.864;12.096;2024-01-30T10:34:41;12.80;;;7.70;;
11211;SDS011;5663;50.864;12.096;2024-01-30T10:37:10;13.60;;;8.13;;
11211;SDS011;5663;50.864;12.096;2024-01-30T10:39:50;13.47;;;8.27;;
11211;SDS011;5663;50.864;12.096;2024-01-30T10:42:25;10.90;;;7.23;;
11211;SDS011;5663;50.864;12.096;2024-01-30T10:44:56;12.00;;;7.93;;
11211;SDS011;5663;50.864;12.096;2024-01-30T10:47:26;12.13;;;7.97;;
11211;SDS011;5663;50.864;12.096;2024-01-30T10:49:54;10.77;;;7.77;;
11211;SDS011;5663;50.864;12.096;2024-01-30T10:52:23;11.03;;;7.57;;
11211;SDS011;5663;50.864;12.096;2024-01-30T10:55:04;10.20;;;7.67;;
11211;SDS011;5663;50.864;12.096;2024-01-30T10:57:40;16.40;;;7.57;;
11211;SDS011;5663;50.864;12.096;2024-01-30T11:00:08;10.20;;;8.03;;
11211;SDS011;5663;50.864;12.096;2024-01-30T11:02:45;11.83;;;7.73;;
11211;SDS011;5663;50.864;12.096;2024-01-30T11:05:23;12.77;;;8.43;;
11211;SDS011;5663;50.864;12.096;2024-01-30T11:07:53;13.23;;;8.00;;
11211;SDS011;5663;50.864;12.096;2024-01-30T11:10:24;12.60;;;7.53;;
11211;SDS011;5663;50.864;12.096;2024-01-30T11:12:57;10.50;;;7.57;;
11211;SDS011;5663;50.864;12.096;2024-01-30T11:15:43;12.50;;;7.90;;
11211;SDS011;5663;50.864;12.096;2024-01-30T11:18:24;11.70;;;7.73;;
11211;SDS011;5663;50.864;12.096;2024-01-30T11:20:52;11.20;;;7.47;;
11211;SDS011;5663;50.864;12.096;2024-01-30T11:23:33;13.97;;;8.33;;
11211;SDS011;5663;50.864;12.096;2024-01-30T11:26:03;13.47;;;7.53;;
11211;SDS011;5663;50.864;12.096;2024-01-30T11:28:35;9.23;;;7.40;;
11211;SDS011;5663;50.864;12.096;2024-01-30T11:31:14;11.33;;;7.13;;
11211;SDS011;5663;50.864;12.096;2024-01-30T11:33:55;14.03;;;7.37;;
11211;SDS011;5663;50.864;12.096;2024-01-30T11:36:25;11.43;;;7.70;;
11211;SDS011;5663;50.864;12.096;2024-01-30T11:38:53;10.57;;;7.03;;
11211;SDS011;5663;50.864;12.096;2024-01-30T11:41:22;11.80;;;7.83;;
11211;SDS011;5663;50.864;12.096;2024-01-30T11:43:54;9.73;;;7.20;;
11211;SDS011;5663;50.864;12.096;2024-01-30T11:46:22;12.47;;;7.40;;
11211;SDS011;5663;50.864;12.096;2024-01-30T11:48:52;13.30;;;7.70;;
11211;SDS011;5663;50.864;12.096;2024-01-30T11:51:19;11.97;;;7.67;;
11211;SDS011;5663;50.864;12.096;2024-01-30T11:53:49;15.73;;;9.10;;
11211;SDS011;5663;50.864;12.096;2024-01-30T11:56:20;11.30;;;7.60;;
11211;SDS011;5663;50.864;12.096;2024-01-30T11:59:07;15.87;;;9.17;;
11211;SDS011;5663;50.864;12.096;2024-01-30T12:01:36;12.83;;;7.70;;
11211;SDS011;5663;50.864;12.096;2024-01-30T12:04:04;12.00;;;8.33;;
11211;SDS011;5663;50.864;12.096;2024-01-30T12:06:34;11.57;;;7.20;;
11211;SDS011;5663;50.864;12.096;2024-01-30T12:09:04;11.10;;;7.20;;
11211;SDS011;5663;50.864;12.096;2024-01-30T12:11:43;12.83;;;7.20;;
11211;SDS011;5663;50.864;12.096;2024-01-30T12:14:12;11.87;;;7.23;;
11211;SDS011;5663;50.864;12.096;2024-01-30T12:16:48;13.47;;;7.10;;
11211;SDS011;5663;50.864;12.096;2024-01-30T12:19:22;10.77;;;6.93;;
11211;SDS011;5663;50.864;12.096;2024-01-30T12:21:58;9.87;;;6.87;;
11211;SDS011;5663;50.864;12.096;2024-01-30T12:24:36;9.67;;;7.00;;
11211;SDS011;5663;50.864;12.096;2024-01-30T12:27:14;8.77;;;6.63;;
11211;SDS011;5663;50.864;12.096;2024-01-30T12:29:48;11.47;;;6.77;;
11211;SDS011;5663;50.864;12.096;2024-01-30T12:32:18;10.93;;;6.73;;
11211;SDS011;5663;50.864;12.096;2024-01-30T12:34:46;9.97;;;7.03;;
11211;SDS011;5663;50.864;12.096;2024-01-30T12:37:18;17.53;;;6.60;;
11211;SDS011;5663;50.864;12.096;2024-01-30T12:40:01;10.80;;;6.67;;
11211;SDS011;5663;50.864;12.096;2024-01-30T12:42:48;11.83;;;6.30;;
11211;SDS011;5663;50.864;12.096;2024-01-30T12:45:18;10.77;;;7.13;;
11211;SDS011;5663;50.864;12.096;2024-01-30T12:47:50;9.03;;;6.27;;
11211;SDS011;5663;50.864;12.096;2024-01-30T12:50:28;9.83;;;6.73;;
11211;SDS011;5663;50.864;12.096;2024-01-30T12:52:59;8.93;;;6.27;;
11211;SDS011;5663;50.864;12.096;2024-01-30T12:55:39;7.53;;;5.60;;
11211;SDS011;5663;50.864;12.096;2024-01-30T12:58:08;8.20;;;6.00;;
11211;SDS011;5663;50.864;12.096;2024-01-30T13:00:40;9.60;;;6.10;;
11211;SDS011;5663;50.864;12.096;2024-01-30T13:03:10;14.60;;;6.53;;
11211;SDS011;5663;50.864;12.096;2024-01-30T13:05:39;12.00;;;6.37;;
11211;SDS011;5663;50.864;12.096;2024-01-30T13:08:08;7.93;;;5.83;;
11211;SDS011;5663;50.864;12.096;2024-01-30T13:10:41;8.03;;;5.40;;
11211;SDS011;5663;50.864;12.096;2024-01-30T13:13:09;7.27;;;5.53;;
11211;SDS011;5663;50.864;12.096;2024-01-30T13:15:39;9.90;;;5.67;;
11211;SDS011;5663;50.864;12.096;2024-01-30T13:18:16;8.03;;;5.13;;
11211;SDS011;5663;50.864;12.096;2024-01-30T13:20:47;9.10;;;5.00;;
11211;SDS011;5663;50.864;12.096;2024-01-30T13:23:32;8.57;;;5.47;;
11211;SDS011;5663;50.864;12.096;2024-01-30T13:26:01;7.83;;;5.30;;
11211;SDS011;5663;50.864;12.096;2024-01-30T13:28:31;9.80;;;5.70;;
11211;SDS011;5663;50.864;12.096;2024-01-30T13:31:02;8.50;;;5.37;;
11211;SDS011;5663;50.864;12.096;2024-01-30T13:33:32;10.37;;;5.33;;
11211;SDS011;5663;50.864;12.096;2024-01-30T13:36:10;7.23;;;5.07;;
11211;SDS011;5663;50.864;12.096;2024-01-30T13:38:46;6.73;;;4.90;;
11211;SDS011;5663;50.864;12.096;2024-01-30T13:41:19;6.00;;;5.00;;
11211;SDS011;5663;50.864;12.096;2024-01-30T13:43:48;9.13;;;5.10;;
11211;SDS011;5663;50.864;12.096;2024-01-30T13:46:22;6.80;;;5.30;;
11211;SDS011;5663;50.864;12.096;2024-01-30T13:48:50;7.23;;;5.03;;
11211;SDS011;5663;50.864;12.096;2024-01-30T13:51:18;8.17;;;5.43;;
11211;SDS011;5663;50.864;12.096;2024-01-30T13:53:46;8.10;;;4.87;;
11211;SDS011;5663;50.864;12.096;2024-01-30T13:56:19;5.97;;;4.50;;
11211;SDS011;5663;50.864;12.096;2024-01-30T13:59:03;11.23;;;5.90;;
11211;SDS011;5663;50.864;12.096;2024-01-30T14:02:07;6.27;;;4.97;;
11211;SDS011;5663;50.864;12.096;2024-01-30T14:04:42;8.07;;;5.53;;
11211;SDS011;5663;50.864;12.096;2024-01-30T14:07:16;5.97;;;4.60;;
11211;SDS011;5663;50.864;12.096;2024-01-30T14:09:58;6.93;;;5.00;;
11211;SDS011;5663;50.864;12.096;2024-01-30T14:12:28;7.60;;;4.70;;
11211;SDS011;5663;50.864;12.096;2024-01-30T14:15:24;5.67;;;5.07;;
11211;SDS011;5663;50.864;12.096;2024-01-30T14:21:23;6.33;;;4.93;;
11211;SDS011;5663;50.864;12.096;2024-01-30T14:24:05;6.63;;;5.10;;
11211;SDS011;5663;50.864;12.096;2024-01-30T14:26:33;12.03;;;4.93;;
11211;SDS011;5663;50.864;12.096;2024-01-30T14:29:00;6.93;;;5.50;;
11211;SDS011;5663;50.864;12.096;2024-01-30T14:31:29;6.13;;;5.03;;
11211;SDS011;5663;50.864;12.096;2024-01-30T14:33:59;7.30;;;5.60;;
11211;SDS011;5663;50.864;12.096;2024-01-30T14:36:45;7.13;;;5.40;;
11211;SDS011;5663;50.864;12.096;2024-01-30T14:39:15;8.17;;;5.40;;
11211;SDS011;5663;50.864;12.096;2024-01-30T14:41:44;8.43;;;5.50;;
11211;SDS011;5663;50.864;12.096;2024-01-30T14:44:12;10.33;;;5.97;;
11211;SDS011;5663;50.864;12.096;2024-01-30T14:46:42;6.23;;;5.10;;
11211;SDS011;5663;50.864;12.096;2024-01-30T14:49:15;8.97;;;6.20;;
11211;SDS011;5663;50.864;12.096;2024-01-30T14:51:49;7.60;;;5.00;;
11211;SDS011;5663;50.864;12.096;2024-01-30T14:54:33;15.20;;;6.20;;
11211;SDS011;5663;50.864;12.096;2024-01-30T14:57:14;6.97;;;5.77;;
11211;SDS011;5663;50.864;12.096;2024-01-30T14:59:56;8.93;;;5.53;;
11211;SDS011;5663;50.864;12.096;2024-01-30T15:02:40;8.17;;;5.53;;
11211;SDS011;5663;50.864;12.096;2024-01-30T15:05:08;7.50;;;5.63;;
11211;SDS011;5663;50.864;12.096;2024-01-30T15:07:38;8.63;;;6.13;;
11211;SDS011;5663;50.864;12.096;2024-01-30T15:10:06;10.67;;;6.17;;
11211;SDS011;5663;50.864;12.096;2024-01-30T15:12:33;7.77;;;5.70;;
11211;SDS011;5663;50.864;12.096;2024-01-30T15:15:19;9.10;;;6.03;;
11211;SDS011;5663;50.864;12.096;2024-01-30T15:18:04;10.20;;;6.17;;
11211;SDS011;5663;50.864;12.096;2024-01-30T15:20:40;7.67;;;5.70;;
11211;SDS011;5663;50.864;12.096;2024-01-30T15:23:10;9.50;;;5.97;;
11211;SDS011;5663;50.864;12.096;2024-01-30T15:25:37;8.17;;;6.07;;
11211;SDS011;5663;50.864;12.096;2024-01-30T15:28:05;8.57;;;6.30;;